Pagina principale
METAR-TAF:

METAR-TAF

Aeroporti :

Guilin, Cina

latitudine: 25-20N, longitudine: 110-18E, altezza: 166 m

Osservazione

Il bollettino è stato emesso 32 minuti fa, alle 01:00 UTC
Vento 2 kt da est
Temperature 12°C
Umidità 88%
Pressione 1025 hPa
Visibilità: 8000 m
Poco nuvoloso ad un'altezza di 3600 ft
Nuvoloso ad un'altezza di 6600 ft

METAR: ZGKL 250100Z 08001MPS 8000 FEW036 BKN066 12/10 Q1025 NOSIG

Ora: 09:32 (01:32 UTC)

Previsione

Il bollettino è stato emesso 6 ore e 19 minuti fa, alle 19:13 UTC
Previsione valida dal 25 alle 00 UTC al 25 alle 24 UTC
Vento 6 kt da nord-est
Visibilità: 8000 m
Nubi sparse ad un'altezza di 2300 ft
Cielo coperto ad un'altezza di 4000 ft

TAF: ZGKL 241913Z 2500/2524 05003MPS 8000 SCT023 OVC040 TX15/2507Z TN10/2523Z

Osservazioni e previsioni meteorologiche di più di 4000 aeroporti (messaggi METAR e TAF).

Le stazioni disponibili sono rappresentate dai dischi gialli e rossi sulla carta.

Puntare il mouse per vedere il nome della stazione.

Clicca sopra per visualizzare le osservazioni e previsioni meteorologiche.

Per cambiare la mappa : fare clic sui pulsanti verdi con una croce nera per ingrandire, il pulsante verde con un trattino per diminuire, o sulla freccia verde per le mappe adiacenti.


METAR-TAF: